Time;durP1;ratioP1;P1;durP2;ratioP2;P2;SDS_P1;SDS_P2;PMS_P1;PMS_P2;Temp;Humidity;BMP_temperature;BMP_pressure;BME280_temperature;BME280_humidity;BME280_pressure;Samples;Min_cycle;Max_cycle;Signal;HPM_P1;HPM_P2
2022/01/22 00:00:53;;;;;;;18.23;6.92;;;;;;;-2.38;92.05;98310.84;1736007;82;21512;-69
2022/01/22 00:03:22;;;;;;;14.65;5.65;;;;;;;-2.36;92.35;98297.08;1736308;82;20982;-67
2022/01/22 00:05:49;;;;;;;17.60;6.55;;;;;;;-2.35;92.58;98303.55;1738966;82;21075;-68
2022/01/22 00:08:15;;;;;;;16.55;6.78;;;;;;;-2.35;92.72;98310.83;1733300;82;21004;-67
2022/01/22 00:10:47;;;;;;;12.03;5.72;;;;;;;-2.34;93.01;98304.38;1735038;82;21080;-68
2022/01/22 00:15:53;;;;;;;16.27;5.92;;;;;;;-2.33;93.34;98312.73;1733784;82;21501;-68
2022/01/22 00:18:18;;;;;;;12.07;5.83;;;;;;;-2.32;93.44;98307.07;1732835;81;21520;-67
2022/01/22 00:20:44;;;;;;;12.40;5.25;;;;;;;-2.32;93.48;98313.81;1734773;82;21041;-67
2022/01/22 00:23:10;;;;;;;15.72;5.33;;;;;;;-2.34;93.58;98309.22;1724188;82;21056;-68
2022/01/22 00:25:39;;;;;;;12.75;5.30;;;;;;;-2.35;93.66;98312.18;1719008;82;21129;-68
2022/01/22 00:28:09;;;;;;;14.70;5.55;;;;;;;-2.36;93.82;98313.27;1721147;82;21083;-68
2022/01/22 00:30:40;;;;;;;9.33;4.75;;;;;;;-2.37;93.99;98318.41;1721467;82;21011;-68
2022/01/22 00:33:09;;;;;;;10.72;5.25;;;;;;;-2.37;94.15;98314.36;1720732;82;21013;-68
2022/01/22 00:35:36;;;;;;;11.93;5.53;;;;;;;-2.37;94.29;98317.05;1718789;82;21053;-68
2022/01/22 00:38:06;;;;;;;10.40;5.12;;;;;;;-2.36;94.42;98318.14;1721213;82;21846;-69
2022/01/22 00:40:36;;;;;;;14.03;6.85;;;;;;;-2.37;94.55;98316.49;1722161;82;21009;-68
2022/01/22 00:43:04;;;;;;;11.85;5.55;;;;;;;-2.38;94.61;98320.28;1723823;82;21044;-67
2022/01/22 00:45:34;;;;;;;14.55;5.55;;;;;;;-2.37;94.73;98319.75;1719705;82;21490;-69
2022/01/22 00:48:00;;;;;;;15.88;5.55;;;;;;;-2.36;94.83;98321.36;1719379;82;21029;-69
2022/01/22 00:50:29;;;;;;;8.68;4.67;;;;;;;-2.34;94.87;98320.01;1720664;82;21826;-67
2022/01/22 00:52:58;;;;;;;14.93;5.15;;;;;;;-2.32;94.90;98316.52;1722114;82;21056;-69
2022/01/22 00:55:24;;;;;;;16.57;5.45;;;;;;;-2.30;94.87;98316.80;1720055;82;20986;-67
2022/01/22 00:57:57;;;;;;;9.88;4.65;;;;;;;-2.29;94.80;98319.23;1719983;82;22208;-68
2022/01/22 01:00:26;;;;;;;14.40;6.22;;;;;;;-2.29;94.68;98317.89;1722589;82;21110;-68
2022/01/22 01:02:52;;;;;;;11.65;5.20;;;;;;;-2.31;94.68;98321.38;1721887;82;21049;-68
2022/01/22 01:05:25;;;;;;;10.03;4.80;;;;;;;-2.30;94.69;98325.70;1718935;82;21060;-67
2022/01/22 01:07:51;;;;;;;11.23;5.40;;;;;;;-2.34;94.50;98314.61;1720132;82;21022;-67
2022/01/22 01:10:22;;;;;;;12.93;4.47;;;;;;;-2.34;94.59;98317.31;1722847;82;21298;-68
2022/01/22 01:12:56;;;;;;;11.50;4.87;;;;;;;-2.33;94.55;98313.55;1719144;82;21060;-69
2022/01/22 01:15:54;;;;;;;11.25;5.75;;;;;;;-2.33;94.46;98316.25;1721684;82;21047;-68
2022/01/22 01:34:30;;;;;;;10.63;4.22;;;;;;;-2.36;94.71;98323.53;1706351;82;21072;-68
2022/01/22 01:37:00;;;;;;;12.00;4.78;;;;;;;-2.39;94.94;98325.38;1736680;82;20989;-68
2022/01/22 01:39:33;;;;;;;11.48;5.33;;;;;;;-2.40;95.00;98329.70;1734649;82;21067;-68
2022/01/22 01:42:08;;;;;;;12.17;5.07;;;;;;;-2.40;95.07;98328.34;1736234;82;21113;-67
2022/01/22 01:44:33;;;;;;;9.53;3.98;;;;;;;-2.39;94.98;98332.13;1735203;82;21502;-68
2022/01/22 01:47:05;;;;;;;9.95;4.35;;;;;;;-2.41;94.94;98329.44;1737422;82;21017;-68
2022/01/22 01:49:37;;;;;;;10.72;4.35;;;;;;;-2.43;94.89;98328.35;1733312;82;22045;-68
2022/01/22 01:52:11;;;;;;;8.90;4.97;;;;;;;-2.46;94.69;98330.23;1732891;82;21099;-68
2022/01/22 01:59:55;;;;;;;11.63;4.78;;;;;;;-2.54;94.64;98338.83;1736838;81;21024;-69
2022/01/22 02:02:32;;;;;;;10.68;4.72;;;;;;;-2.58;94.54;98334.49;1732225;82;21099;-68
2022/01/22 02:05:00;;;;;;;9.70;5.15;;;;;;;-2.60;94.57;98337.98;1735909;82;21001;-68
2022/01/22 02:07:27;;;;;;;12.00;4.87;;;;;;;-2.62;94.59;98330.68;1733906;82;21192;-68
2022/01/22 02:09:59;;;;;;;11.78;4.62;;;;;;;-2.65;94.58;98329.33;1731343;82;21568;-67
2022/01/22 02:26:04;;;;;;;8.88;4.10;;;;;;;-2.76;94.88;98332.50;1731802;82;21021;-68
2022/01/22 02:28:32;;;;;;;9.65;4.67;;;;;;;-2.75;95.14;98338.19;1735366;82;21033;-69
2022/01/22 02:31:11;;;;;;;8.73;3.90;;;;;;;-2.74;95.33;98327.66;1732418;82;21103;-68
2022/01/22 02:39:20;;;;;;;10.63;4.12;;;;;;;-2.66;95.54;98337.69;1734107;82;21063;-68
2022/01/22 02:41:41;;;;;;;15.35;3.90;;;;;;;-2.64;95.64;98336.34;1707458;82;20973;-65
2022/01/22 02:44:05;;;;;;;7.10;3.22;;;;;;;-2.60;95.63;98344.20;1731442;82;21501;-67
2022/01/22 02:46:38;;;;;;;12.07;3.40;;;;;;;-2.58;95.59;98349.33;1708319;82;21143;-68
2022/01/22 02:49:05;;;;;;;8.78;3.80;;;;;;;-2.56;95.56;98349.89;1736147;82;21485;-68
2022/01/22 02:51:35;;;;;;;8.03;3.77;;;;;;;-2.52;95.56;98355.55;1735566;82;21036;-68
2022/01/22 02:54:01;;;;;;;11.38;4.70;;;;;;;-2.51;95.45;98357.19;1716849;82;21028;-67
2022/01/22 02:56:32;;;;;;;8.90;4.05;;;;;;;-2.51;95.41;98353.96;1733845;82;21036;-67
2022/01/22 02:59:00;;;;;;;13.62;3.87;;;;;;;-2.50;95.29;98354.22;1736362;82;21092;-67
2022/01/22 03:01:27;;;;;;;9.50;3.80;;;;;;;-2.49;95.17;98365.28;1706981;82;21048;-69
2022/01/22 03:03:55;;;;;;;6.05;3.52;;;;;;;-2.50;95.11;98365.02;1733510;82;21707;-68
2022/01/22 03:06:21;;;;;;;13.88;4.03;;;;;;;-2.50;95.10;98360.97;1715928;82;21070;-68
2022/01/22 03:08:49;;;;;;;11.00;3.37;;;;;;;-2.51;94.97;98368.80;1734810;82;21070;-66
2022/01/22 03:11:25;;;;;;;10.93;4.47;;;;;;;-2.48;94.89;98364.75;1733076;82;21109;-68
2022/01/22 03:16:56;;;;;;;11.97;3.20;;;;;;;-2.47;94.74;98366.36;1736037;82;21000;-68
2022/01/22 03:19:55;;;;;;;10.05;3.25;;;;;;;-2.48;94.63;98361.52;1734688;82;21087;-68
2022/01/22 03:22:14;;;;;;;10.90;4.20;;;;;;;-2.46;94.45;98369.36;1732207;82;21088;-69
2022/01/22 03:27:26;;;;;;;8.85;3.77;;;;;;;-2.46;94.43;98363.40;1743742;81;21523;-67
2022/01/22 03:29:51;;;;;;;6.28;3.37;;;;;;;-2.46;94.46;98360.70;1719908;81;21075;-68
2022/01/22 03:32:19;;;;;;;11.10;3.37;;;;;;;-2.45;94.45;98358.30;1740885;81;21082;-67
2022/01/22 03:34:57;;;;;;;15.80;4.37;;;;;;;-2.44;94.50;98365.87;1742316;81;21626;-69
2022/01/22 03:37:24;;;;;;;13.05;5.40;;;;;;;-2.43;94.46;98358.56;1744877;81;21100;-68
2022/01/22 03:39:55;;;;;;;8.33;3.90;;;;;;;-2.39;94.30;98359.67;1713819;81;20992;-69
2022/01/22 03:42:25;;;;;;;16.02;5.00;;;;;;;-2.38;94.18;98370.20;1743138;81;20965;-68
2022/01/22 03:44:54;;;;;;;12.45;4.80;;;;;;;-2.37;93.93;98369.12;1743482;81;21024;-68
2022/01/22 03:47:22;;;;;;;16.62;5.70;;;;;;;-2.37;93.83;98372.38;1740605;81;21048;-69
2022/01/22 03:49:52;;;;;;;13.60;5.00;;;;;;;-2.38;93.77;98372.91;1741836;81;21137;-69
2022/01/22 03:52:23;;;;;;;13.50;5.50;;;;;;;-2.36;93.66;98379.39;1720563;81;20992;-69
2022/01/22 03:54:51;;;;;;;11.85;4.83;;;;;;;-2.38;93.41;98385.58;1742804;81;21036;-68
2022/01/22 03:57:22;;;;;;;12.20;4.17;;;;;;;-2.39;93.34;98379.91;1736722;81;20991;-68
2022/01/22 03:59:54;;;;;;;13.40;4.17;;;;;;;-2.41;93.20;98378.01;1744815;81;21035;-68
2022/01/22 04:05:10;;;;;;;7.03;3.33;;;;;;;-2.45;92.86;98387.16;1742343;81;20984;-68
2022/01/22 04:10:15;;;;;;;8.15;3.65;;;;;;;-2.50;92.59;98387.13;1743374;81;20996;-66
2022/01/22 04:12:58;;;;;;;9.10;2.90;;;;;;;-2.52;92.48;98390.09;1744634;81;20992;-68
2022/01/22 04:15:23;;;;;;;7.83;3.50;;;;;;;-2.54;92.24;98388.19;1738803;81;21066;-67
2022/01/22 04:28:57;;;;;;;9.23;4.67;;;;;;;-2.66;91.68;98402.42;1735790;82;20988;-68
2022/01/22 04:31:25;;;;;;;9.55;2.95;;;;;;;-2.65;91.65;98408.09;1710559;82;21001;-69
2022/01/22 04:33:51;;;;;;;10.32;3.47;;;;;;;-2.63;91.53;98408.64;1732937;82;21524;-68
2022/01/22 04:36:23;;;;;;;13.32;3.00;;;;;;;-2.62;91.47;98409.73;1736155;82;21039;-67
2022/01/22 04:38:50;;;;;;;8.73;2.95;;;;;;;-2.62;91.39;98405.69;1734318;82;21091;-69
2022/01/22 04:41:17;;;;;;;7.03;3.90;;;;;;;-2.62;91.19;98400.81;1733121;82;21506;-68
2022/01/22 04:43:46;;;;;;;12.28;3.10;;;;;;;-2.64;91.11;98402.95;1735013;82;21016;-68
2022/01/22 04:46:26;;;;;;;7.17;3.33;;;;;;;-2.63;91.17;98395.16;1735509;82;21005;-69
2022/01/22 04:57:09;;;;;;;11.33;3.58;;;;;;;-2.59;90.77;98410.55;1734738;82;21527;-68
2022/01/22 04:59:36;;;;;;;6.85;3.27;;;;;;;-2.58;90.59;98404.63;1732889;82;21036;-66
2022/01/22 05:02:03;;;;;;;7.40;3.60;;;;;;;-2.58;90.40;98415.42;1735239;82;21020;-67
2022/01/22 05:04:50;;;;;;;6.53;2.50;;;;;;;-2.60;90.29;98412.98;1698021;82;21048;-68
2022/01/22 05:07:29;;;;;;;9.48;3.27;;;;;;;-2.59;90.26;98409.20;1693370;83;21577;-67
2022/01/22 05:10:15;;;;;;;16.25;2.92;;;;;;;-2.60;90.10;98413.52;1732870;81;21490;-68
2022/01/22 05:12:42;;;;;;;6.17;3.05;;;;;;;-2.61;90.00;98411.90;1708539;82;20997;-69
2022/01/22 05:15:15;;;;;;;11.35;2.77;;;;;;;-2.64;89.92;98411.05;1734199;82;21013;-68
2022/01/22 05:17:44;;;;;;;10.32;3.50;;;;;;;-2.66;89.84;98420.75;1709778;82;20996;-67
2022/01/22 05:20:25;;;;;;;7.37;3.30;;;;;;;-2.66;89.82;98419.96;1727456;82;21337;-68
2022/01/22 05:25:39;;;;;;;10.55;3.42;;;;;;;-2.66;89.48;98422.66;1735187;82;20982;-68
2022/01/22 05:33:29;;;;;;;14.20;4.42;;;;;;;-2.71;89.18;98437.72;1710080;82;22137;-69
2022/01/22 05:38:35;;;;;;;8.25;2.83;;;;;;;-2.68;89.09;98433.70;1735114;82;21031;-68
2022/01/22 05:41:03;;;;;;;10.13;3.42;;;;;;;-2.68;88.72;98439.10;1732867;82;21039;-68
2022/01/22 05:43:30;;;;;;;13.45;3.17;;;;;;;-2.72;88.46;98437.98;1709909;82;21522;-67
2022/01/22 05:45:59;;;;;;;10.90;3.67;;;;;;;-2.76;88.31;98444.42;1736622;82;21556;-67
2022/01/22 05:48:30;;;;;;;13.08;4.08;;;;;;;-2.78;88.21;98449.81;1706854;82;21311;-69
2022/01/22 05:51:01;;;;;;;6.90;2.80;;;;;;;-2.78;88.26;98458.70;1732771;82;22325;-68
2022/01/22 05:53:41;;;;;;;9.98;3.55;;;;;;;-2.77;88.19;98462.22;1731665;82;21506;-68
2022/01/22 06:01:29;;;;;;;12.65;3.83;;;;;;;-2.79;88.05;98473.27;1709468;82;21536;-68
2022/01/22 06:03:58;;;;;;;11.60;2.87;;;;;;;-2.78;88.00;98464.09;1732500;81;21524;-66
2022/01/22 06:06:25;;;;;;;5.17;2.77;;;;;;;-2.79;87.97;98471.91;1733636;82;21083;-68
2022/01/22 06:08:56;;;;;;;10.93;3.10;;;;;;;-2.76;87.93;98471.95;1706483;82;21004;-68
2022/01/22 06:11:29;;;;;;;8.15;2.98;;;;;;;-2.76;87.85;98476.00;1737358;82;21539;-68
2022/01/22 06:14:00;;;;;;;4.95;2.55;;;;;;;-2.73;87.86;98468.73;1732874;81;21878;-67
2022/01/22 06:16:30;;;;;;;7.95;2.42;;;;;;;-2.72;87.72;98473.87;1733298;82;21011;-69
2022/01/22 06:19:05;;;;;;;9.53;2.90;;;;;;;-2.71;87.60;98475.48;1734877;82;21064;-68
2022/01/22 06:21:34;;;;;;;7.20;2.22;;;;;;;-2.69;87.62;98479.27;1708307;82;21063;-68
2022/01/22 06:24:05;;;;;;;6.05;2.70;;;;;;;-2.64;87.56;98485.23;1727754;82;21924;-69
2022/01/22 06:26:35;;;;;;;7.97;3.67;;;;;;;-2.62;87.47;98483.09;1720079;82;20994;-69
2022/01/22 06:29:04;;;;;;;16.95;4.90;;;;;;;-2.58;87.46;98486.36;1721842;82;21073;-69
2022/01/22 06:31:34;;;;;;;14.45;5.00;;;;;;;-2.52;87.38;98483.17;1721226;82;21013;-69
2022/01/22 06:34:04;;;;;;;11.65;4.08;;;;;;;-2.50;87.06;98480.21;1718943;82;21005;-68
2022/01/22 06:36:33;;;;;;;11.10;3.83;;;;;;;-2.48;86.95;98485.64;1719831;82;21169;-67
2022/01/22 06:39:17;;;;;;;7.80;3.37;;;;;;;-2.46;86.83;98483.48;1725916;82;21005;-68
2022/01/22 06:41:48;;;;;;;7.40;2.98;;;;;;;-2.44;86.71;98492.69;1722027;81;21029;-70
2022/01/22 06:44:25;;;;;;;7.97;3.25;;;;;;;-2.40;86.48;98492.43;1714944;82;21134;-66
2022/01/22 06:46:56;;;;;;;11.53;3.45;;;;;;;-2.40;86.23;98493.78;1718984;82;21041;-66
2022/01/22 06:49:40;;;;;;;9.20;2.72;;;;;;;-2.39;86.04;98492.70;1722343;82;21049;-68
2022/01/22 06:52:09;;;;;;;9.73;3.17;;;;;;;-2.37;85.75;98497.30;1718144;82;21028;-68
2022/01/22 06:54:42;;;;;;;9.78;3.62;;;;;;;-2.38;85.68;98492.99;1698652;82;20998;-68
2022/01/22 06:57:10;;;;;;;9.85;3.45;;;;;;;-2.38;85.43;98492.17;1721727;82;21049;-69
2022/01/22 06:59:40;;;;;;;9.05;3.65;;;;;;;-2.36;85.18;98498.95;1721698;82;21032;-68
2022/01/22 07:02:07;;;;;;;16.80;3.90;;;;;;;-2.36;85.06;98500.30;1720190;82;21043;-68
2022/01/22 07:04:39;;;;;;;12.33;3.20;;;;;;;-2.33;84.83;98504.34;1719530;82;21071;-67
2022/01/22 07:07:19;;;;;;;10.35;3.60;;;;;;;-2.33;84.76;98510.57;1719900;82;21076;-67
2022/01/22 07:09:47;;;;;;;11.35;4.28;;;;;;;-2.31;84.67;98510.31;1676486;82;21508;-68
2022/01/22 07:12:14;;;;;;;11.75;3.25;;;;;;;-2.30;84.55;98521.92;1723140;82;20989;-68
2022/01/22 07:14:45;;;;;;;9.65;3.90;;;;;;;-2.28;84.38;98517.06;1718844;82;21135;-68
2022/01/22 07:17:13;;;;;;;12.45;5.10;;;;;;;-2.28;84.26;98522.45;1719735;82;20977;-69
2022/01/22 07:19:43;;;;;;;13.58;4.50;;;;;;;-2.27;84.28;98522.20;1720817;82;21037;-68
2022/01/22 07:23:15;;;;;;;14.90;5.42;;;;;;;-2.24;84.06;98521.70;1717746;82;21554;-68
2022/01/22 07:24:51;;;;;;;18.10;6.33;;;;;;;-2.22;84.16;98526.84;1716507;82;21561;-68
2022/01/22 07:27:19;;;;;;;18.65;7.33;;;;;;;-2.23;84.34;98528.72;1719102;82;21206;-69
2022/01/22 07:29:49;;;;;;;9.93;4.30;;;;;;;-2.23;84.86;98530.06;1718827;81;20989;-69
2022/01/22 07:32:26;;;;;;;16.25;5.92;;;;;;;-2.23;85.28;98526.55;1719137;82;21044;-68
2022/01/22 07:34:47;;;;;;;11.25;4.25;;;;;;;-2.20;85.71;98532.77;1722144;82;21044;-69
2022/01/22 07:37:17;;;;;;;15.08;4.70;;;;;;;-2.19;85.94;98527.66;1722844;82;21100;-70
2022/01/22 07:39:45;;;;;;;12.13;4.65;;;;;;;-2.20;86.18;98536.29;1721860;82;21106;-69
2022/01/22 07:42:29;;;;;;;11.12;4.58;;;;;;;-2.18;86.34;98532.54;1715557;82;21553;-67
2022/01/22 07:45:06;;;;;;;11.08;4.20;;;;;;;-2.17;86.50;98532.27;1718716;82;21096;-68
2022/01/22 07:47:38;;;;;;;9.30;4.40;;;;;;;-2.13;86.54;98535.27;1718750;82;21124;-67
2022/01/22 07:50:09;;;;;;;20.00;7.97;;;;;;;-2.11;86.04;98535.27;1717410;82;21743;-68
2022/01/22 07:52:41;;;;;;;24.57;9.18;;;;;;;-2.06;85.62;98539.89;1722347;82;21564;-69
2022/01/22 07:55:08;;;;;;;10.35;4.70;;;;;;;-2.02;85.34;98538.30;1722163;82;21525;-69
2022/01/22 07:57:41;;;;;;;11.05;4.20;;;;;;;-1.99;84.88;98545.87;1701730;82;21029;-67
2022/01/22 08:00:10;;;;;;;14.65;5.42;;;;;;;-1.97;84.52;98548.31;1722783;82;21504;-68
2022/01/22 08:02:39;;;;;;;10.63;4.15;;;;;;;-1.95;84.30;98552.92;1718766;82;21017;-68
2022/01/22 08:05:29;;;;;;;15.00;3.87;;;;;;;-1.90;84.20;98551.61;1719121;82;21219;-69
2022/01/22 08:08:16;;;;;;;8.58;4.20;;;;;;;-1.85;83.64;98553.52;1719419;82;21029;-69
2022/01/22 08:10:47;;;;;;;6.72;3.40;;;;;;;-1.82;82.69;98557.05;1708288;82;21072;-68
2022/01/22 08:13:17;;;;;;;7.15;3.37;;;;;;;-1.83;82.60;98560.83;1719822;82;20990;-67
2022/01/22 08:15:43;;;;;;;12.85;4.70;;;;;;;-1.86;82.50;98559.45;1725898;82;21145;-68
2022/01/22 08:18:12;;;;;;;11.90;4.28;;;;;;;-1.83;82.63;98562.18;1720747;82;21517;-67
2022/01/22 08:20:40;;;;;;;10.68;4.00;;;;;;;-1.81;82.50;98565.44;1719232;82;21516;-68
2022/01/22 08:23:06;;;;;;;10.35;3.58;;;;;;;-1.79;82.50;98570.02;1721554;82;21036;-67
2022/01/22 08:25:41;;;;;;;9.28;3.65;;;;;;;-1.76;82.21;98570.88;1725877;82;21066;-70
2022/01/22 08:31:17;;;;;;;9.83;4.28;;;;;;;-1.72;81.33;98577.36;1732670;81;20997;-71
2022/01/22 08:36:08;;;;;;;8.30;3.83;;;;;;;-1.62;81.23;98580.66;1675121;82;21083;-69
2022/01/22 08:38:39;;;;;;;10.75;3.95;;;;;;;-1.57;81.19;98571.78;1732867;81;20968;-69
2022/01/22 08:41:07;;;;;;;14.73;4.65;;;;;;;-1.52;80.99;98577.19;1735787;82;21036;-68
2022/01/22 08:43:36;;;;;;;16.10;4.05;;;;;;;-1.42;81.06;98585.90;1735562;82;22641;-69
2022/01/22 08:46:05;;;;;;;9.68;4.30;;;;;;;-1.34;80.99;98584.57;1733121;82;21476;-67
2022/01/22 08:48:31;;;;;;;8.43;4.05;;;;;;;-1.32;80.91;98591.88;1733956;82;20993;-68
2022/01/22 08:51:01;;;;;;;13.80;6.20;;;;;;;-1.33;80.83;98586.19;1735807;82;21024;-69
2022/01/22 08:53:28;;;;;;;12.03;5.17;;;;;;;-1.32;80.64;98591.88;1734188;82;21038;-69
2022/01/22 08:55:58;;;;;;;11.73;5.15;;;;;;;-1.30;80.68;98591.62;1732822;82;21643;-68
2022/01/22 08:58:25;;;;;;;14.87;5.60;;;;;;;-1.28;80.47;98595.67;1739709;81;21477;-70
2022/01/22 09:00:58;;;;;;;12.28;4.60;;;;;;;-1.27;80.30;98589.73;1735881;82;21576;-69
2022/01/22 09:03:28;;;;;;;13.68;5.10;;;;;;;-1.25;79.74;98589.76;1731390;82;21591;-67
2022/01/22 09:06:08;;;;;;;14.47;4.22;;;;;;;-1.21;79.53;98599.48;1734703;82;21059;-67
2022/01/22 09:08:39;;;;;;;11.00;4.42;;;;;;;-1.20;79.16;98594.89;1725264;82;21548;-69
2022/01/22 09:11:19;;;;;;;7.85;3.90;;;;;;;-1.18;79.12;98598.16;1711634;82;21576;-70
2022/01/22 09:14:03;;;;;;;13.62;3.98;;;;;;;-1.13;78.87;98602.23;1735715;82;21513;-69
2022/01/22 09:16:34;;;;;;;7.65;3.77;;;;;;;-1.12;78.51;98601.14;1733276;82;21112;-68
2022/01/22 09:19:09;;;;;;;9.80;3.75;;;;;;;-1.14;78.24;98607.34;1732885;82;21017;-68
2022/01/22 09:21:41;;;;;;;8.48;3.75;;;;;;;-1.14;78.38;98599.23;1732822;82;21094;-68
2022/01/22 09:24:08;;;;;;;12.23;4.12;;;;;;;-1.11;78.55;98598.17;1735904;82;20977;-70
2022/01/22 09:26:39;;;;;;;8.83;4.08;;;;;;;-1.05;78.54;98604.95;1735737;82;21099;-69
2022/01/22 09:29:08;;;;;;;7.45;4.08;;;;;;;-1.01;78.44;98600.09;1733835;82;21048;-69
2022/01/22 09:31:36;;;;;;;6.50;3.42;;;;;;;-1.01;77.87;98603.35;1732867;82;21043;-69
2022/01/22 09:34:09;;;;;;;9.83;4.55;;;;;;;-1.05;78.05;98604.42;1707883;82;21153;-68
2022/01/22 09:36:45;;;;;;;7.53;4.20;;;;;;;-1.07;77.79;98596.28;1728259;82;21060;-68
2022/01/22 09:39:22;;;;;;;11.43;4.37;;;;;;;-1.09;77.86;98603.31;1732141;82;21087;-67
2022/01/22 09:41:51;;;;;;;9.48;3.90;;;;;;;-1.06;77.88;98606.86;1734477;82;21001;-68
2022/01/22 09:44:25;;;;;;;11.35;4.47;;;;;;;-1.04;77.62;98603.89;1714312;82;21020;-68
2022/01/22 09:47:04;;;;;;;19.77;4.72;;;;;;;-1.07;77.72;98610.62;1733510;82;21182;-67
2022/01/22 09:49:35;;;;;;;10.70;4.40;;;;;;;-1.05;77.77;98607.13;1731507;82;21016;-68
2022/01/22 09:52:17;;;;;;;12.82;4.65;;;;;;;-1.03;77.75;98611.73;1734377;81;21092;-68
2022/01/22 09:55:05;;;;;;;12.07;3.90;;;;;;;-1.03;77.63;98614.97;1733174;82;21508;-69
2022/01/22 09:57:38;;;;;;;18.57;6.30;;;;;;;-1.04;77.53;98614.15;1728813;82;21016;-69
2022/01/22 10:00:26;;;;;;;14.90;5.42;;;;;;;-1.03;77.65;98617.67;1733974;82;21056;-68
2022/01/22 10:02:55;;;;;;;13.90;6.60;;;;;;;-1.01;77.68;98622.28;1733440;82;20976;-70
2022/01/22 10:05:42;;;;;;;20.60;8.00;;;;;;;-1.00;77.59;98619.31;1733234;82;21044;-68
2022/01/22 10:08:34;;;;;;;11.90;5.33;;;;;;;-0.94;77.65;98624.74;1734048;82;20992;-68
2022/01/22 10:11:26;;;;;;;8.35;3.55;;;;;;;-0.90;77.73;98621.77;1732705;82;21771;-68
2022/01/22 10:14:01;;;;;;;10.00;4.50;;;;;;;-0.87;76.62;98621.26;1731436;82;39953;-69
2022/01/22 10:16:33;;;;;;;8.25;3.70;;;;;;;-0.89;76.75;98626.11;1734338;82;21048;-69
2022/01/22 10:19:22;;;;;;;11.22;4.62;;;;;;;-0.84;76.73;98622.07;1710075;82;21036;-69
2022/01/22 10:22:03;;;;;;;7.92;3.92;;;;;;;-0.70;76.58;98626.41;1738428;82;21028;-69
2022/01/22 10:24:41;;;;;;;12.68;4.45;;;;;;;-0.57;75.67;98627.81;1738408;81;21580;-66
2022/01/22 10:27:47;;;;;;;16.12;4.85;;;;;;;-0.45;75.80;98628.09;1719649;82;21129;-69
2022/01/22 10:30:10;;;;;;;11.10;5.08;;;;;;;-0.31;75.82;98634.63;1720515;82;21544;-69
2022/01/22 10:32:52;;;;;;;13.40;3.98;;;;;;;-0.27;75.00;98628.92;1721760;82;21005;-70
2022/01/22 10:35:34;;;;;;;9.48;4.67;;;;;;;-0.29;74.21;98627.58;1723194;82;21501;-69
2022/01/22 10:38:17;;;;;;;7.58;3.90;;;;;;;-0.34;74.04;98618.10;1718918;82;20958;-68
2022/01/22 10:40:45;;;;;;;13.03;5.05;;;;;;;-0.38;74.14;98616.47;1726289;82;21127;-68
2022/01/22 10:43:34;;;;;;;12.93;4.17;;;;;;;-0.35;73.95;98613.75;1721564;82;21031;-67
2022/01/22 10:49:00;;;;;;;9.65;4.45;;;;;;;-0.42;73.97;98626.20;1707801;82;21474;-67
2022/01/22 10:51:30;;;;;;;15.58;4.90;;;;;;;-0.56;75.50;98619.95;1721644;82;21021;-69
2022/01/22 10:54:02;;;;;;;14.70;6.12;;;;;;;-0.80;77.18;98632.62;1721838;82;21172;-70
2022/01/22 10:56:33;;;;;;;10.93;4.72;;;;;;;-1.00;78.68;98634.19;1721995;82;21064;-68
2022/01/22 10:59:09;;;;;;;12.65;5.95;;;;;;;-1.12;79.91;98628.19;1718519;82;21032;-70
2022/01/22 11:01:54;;;;;;;10.50;5.37;;;;;;;-1.14;80.94;98631.16;1718130;82;21493;-69
2022/01/22 11:04:25;;;;;;;16.48;6.67;;;;;;;-1.06;81.55;98630.38;1722575;82;21021;-68
2022/01/22 11:06:55;;;;;;;13.80;6.53;;;;;;;-0.96;81.98;98630.95;1720978;82;21158;-70
2022/01/22 11:09:23;;;;;;;12.73;5.55;;;;;;;-0.84;81.99;98625.31;1722343;82;20996;-67
2022/01/22 11:11:51;;;;;;;8.10;4.15;;;;;;;-0.75;81.02;98623.16;1719761;82;21040;-68
2022/01/22 11:14:19;;;;;;;13.00;5.70;;;;;;;-0.70;80.21;98626.41;1719704;82;21029;-66
2022/01/22 11:16:52;;;;;;;14.63;6.15;;;;;;;-0.64;80.42;98631.31;1701628;82;21053;-68
2022/01/22 11:19:21;;;;;;;8.60;5.03;;;;;;;-0.62;80.91;98634.57;1718280;82;21099;-68
2022/01/22 11:21:56;;;;;;;16.65;5.08;;;;;;;-0.63;80.75;98632.92;1722020;82;21037;-66
2022/01/22 11:24:28;;;;;;;13.93;5.05;;;;;;;-0.64;80.64;98637.55;1721937;82;21131;-69
2022/01/22 11:27:01;;;;;;;10.82;4.95;;;;;;;-0.68;82.61;98638.35;1732575;81;21052;-68
2022/01/22 11:29:33;;;;;;;11.90;5.53;;;;;;;-0.68;82.45;98638.35;1711657;82;20976;-69
2022/01/22 11:32:05;;;;;;;13.13;6.12;;;;;;;-0.66;81.80;98640.23;1733388;81;21449;-70
2022/01/22 11:34:34;;;;;;;25.17;8.15;;;;;;;-0.68;81.78;98631.03;1734983;82;21153;-69
2022/01/22 11:37:21;;;;;;;12.25;5.87;;;;;;;-0.67;82.06;98635.38;1708561;82;21063;-69
2022/01/22 11:39:52;;;;;;;19.25;6.67;;;;;;;-0.68;81.87;98630.23;1736802;82;21047;-67
2022/01/22 11:42:20;;;;;;;18.27;7.30;;;;;;;-0.76;81.75;98639.14;1700667;82;21037;-68
2022/01/22 11:44:50;;;;;;;13.83;6.55;;;;;;;-0.82;81.80;98635.33;1709776;82;21040;-70
2022/01/22 11:47:25;;;;;;;13.80;5.12;;;;;;;-0.84;81.77;98638.30;1731667;82;21110;-69
2022/01/22 11:50:09;;;;;;;14.33;6.65;;;;;;;-0.87;81.08;98640.19;1735528;82;21079;-69
2022/01/22 11:52:42;;;;;;;12.63;5.25;;;;;;;-0.92;80.66;98645.58;1734529;81;21005;-69
2022/01/22 11:55:17;;;;;;;11.40;4.95;;;;;;;-0.96;80.52;98649.89;1732012;82;21560;-69
2022/01/22 11:57:45;;;;;;;13.45;5.75;;;;;;;-1.04;80.51;98651.22;1713727;82;22137;-69
2022/01/22 12:00:30;;;;;;;10.28;4.62;;;;;;;-1.13;80.67;98661.72;1733400;82;21004;-68
2022/01/22 12:03:19;;;;;;;17.85;5.58;;;;;;;-1.19;81.00;98661.41;1714903;82;21009;-70
2022/01/22 12:06:04;;;;;;;12.65;5.42;;;;;;;-1.21;81.30;98660.31;1736362;82;21381;-69
2022/01/22 12:08:37;;;;;;;10.80;4.28;;;;;;;-1.21;81.56;98671.13;1708301;82;21160;-69
2022/01/22 12:14:31;;;;;;;13.43;4.95;;;;;;;-1.19;81.38;98673.04;1646165;86;21111;-69
2022/01/22 12:16:44;;;;;;;15.72;5.72;;;;;;;-1.13;81.44;98669.83;1640255;86;21153;-69
2022/01/22 12:19:51;;;;;;;14.23;4.78;;;;;;;-1.14;81.79;98669.02;1700313;82;21087;-68
2022/01/22 12:22:37;;;;;;;12.75;5.10;;;;;;;-1.14;82.30;98677.13;1731567;82;20992;-69
2022/01/22 12:25:16;;;;;;;12.20;5.22;;;;;;;-1.12;82.71;98672.27;1736527;82;21125;-69
2022/01/22 12:27:47;;;;;;;13.15;5.78;;;;;;;-1.03;82.46;98680.70;1735486;82;20981;-69
2022/01/22 12:30:15;;;;;;;12.98;5.65;;;;;;;-0.97;82.11;98683.44;1735881;82;21032;-68
2022/01/22 12:32:48;;;;;;;13.83;5.30;;;;;;;-0.94;82.17;98676.96;1732023;82;21021;-68
2022/01/22 12:35:35;;;;;;;13.83;5.45;;;;;;;-0.93;81.29;98684.52;1733925;82;21020;-68
2022/01/22 12:38:29;;;;;;;6.75;2.92;;;;;;;-0.93;81.03;98697.52;1732052;82;21140;-69
2022/01/22 12:40:56;;;;;;;4.25;2.50;;;;;;;-1.00;87.46;98707.75;1729454;82;21079;-70
2022/01/22 12:43:34;;;;;;;6.85;2.80;;;;;;;-1.33;100.00;98715.94;1735228;82;21120;-66
2022/01/22 12:46:02;;;;;;;5.92;2.42;;;;;;;-1.63;100.00;98722.25;1734605;82;21083;-69
2022/01/22 12:48:36;;;;;;;7.72;3.35;;;;;;;-2.06;100.00;98728.89;1733539;82;20985;-69
2022/01/22 12:51:05;;;;;;;4.35;1.80;;;;;;;-2.29;100.00;98730.02;1733905;82;21481;-68
2022/01/22 12:53:33;;;;;;;5.03;1.70;;;;;;;-2.54;100.00;98735.44;1709718;82;21548;-69
2022/01/22 12:56:48;;;;;;;5.72;1.92;;;;;;;-2.77;100.00;98736.79;1735061;82;21087;-69
2022/01/22 12:58:40;;;;;;;11.70;5.65;;;;;;;-2.96;100.00;98744.36;1723003;82;21000;-69
2022/01/22 13:01:11;;;;;;;37.73;11.63;;;;;;;-3.07;100.00;98742.08;1704836;82;21137;-68
2022/01/22 13:03:41;;;;;;;42.67;14.87;;;;;;;-3.07;100.00;98744.22;1736348;82;21978;-69
2022/01/22 13:06:12;;;;;;;16.25;7.37;;;;;;;-3.07;100.00;98747.47;1736551;82;21091;-69
2022/01/22 13:09:05;;;;;;;19.50;7.87;;;;;;;-3.07;100.00;98752.86;1732448;81;20980;-67
2022/01/22 13:11:48;;;;;;;13.38;5.75;;;;;;;-3.06;100.00;98753.95;1738113;82;21079;-69
2022/01/22 13:14:20;;;;;;;27.25;8.53;;;;;;;-3.06;100.00;98758.00;1736027;82;21557;-68
2022/01/22 13:16:50;;;;;;;8.78;5.37;;;;;;;-3.08;100.00;98757.42;1735231;82;21257;-66
2022/01/22 13:19:18;;;;;;;9.40;5.10;;;;;;;-3.03;100.00;98767.98;1733327;82;21000;-68
2022/01/22 13:21:59;;;;;;;9.23;4.60;;;;;;;-3.01;100.00;98769.38;1732436;82;20988;-69
2022/01/22 13:24:28;;;;;;;8.28;3.62;;;;;;;-2.97;100.00;98768.36;1735253;82;21025;-69
2022/01/22 13:27:13;;;;;;;8.23;4.50;;;;;;;-2.88;100.00;98770.89;1710533;81;21040;-69
2022/01/22 13:29:41;;;;;;;12.25;5.40;;;;;;;-2.76;100.00;98777.52;1740351;81;21520;-66
2022/01/22 13:32:18;;;;;;;11.10;5.47;;;;;;;-2.64;100.00;98781.97;1740507;81;21003;-68